sensor_id;sensor_type;location;lat;lon;timestamp;P1;durP1;ratioP1;P2;durP2;ratioP2
59788;SDS011;47353;51.614;5.530;2024-02-28T00:02:04;34.53;;;18.40;;
59788;SDS011;47353;51.614;5.530;2024-02-28T00:04:30;31.92;;;17.08;;
59788;SDS011;47353;51.614;5.530;2024-02-28T00:06:55;31.33;;;17.20;;
59788;SDS011;47353;51.614;5.530;2024-02-28T00:09:21;35.40;;;18.38;;
59788;SDS011;47353;51.614;5.530;2024-02-28T00:11:46;32.80;;;17.75;;
59788;SDS011;47353;51.614;5.530;2024-02-28T00:14:12;34.53;;;18.85;;
59788;SDS011;47353;51.614;5.530;2024-02-28T00:16:41;31.30;;;16.88;;
59788;SDS011;47353;51.614;5.530;2024-02-28T00:19:07;30.70;;;17.02;;
59788;SDS011;47353;51.614;5.530;2024-02-28T00:21:33;30.17;;;15.93;;
59788;SDS011;47353;51.614;5.530;2024-02-28T00:23:59;33.35;;;18.30;;
59788;SDS011;47353;51.614;5.530;2024-02-28T00:26:24;38.97;;;20.08;;
59788;SDS011;47353;51.614;5.530;2024-02-28T00:28:50;33.38;;;17.92;;
59788;SDS011;47353;51.614;5.530;2024-02-28T00:31:15;30.65;;;17.20;;
59788;SDS011;47353;51.614;5.530;2024-02-28T00:33:41;33.13;;;17.23;;
59788;SDS011;47353;51.614;5.530;2024-02-28T00:36:06;31.02;;;17.25;;
59788;SDS011;47353;51.614;5.530;2024-02-28T00:38:32;32.95;;;17.52;;
59788;SDS011;47353;51.614;5.530;2024-02-28T00:40:57;32.90;;;18.17;;
59788;SDS011;47353;51.614;5.530;2024-02-28T00:43:22;29.17;;;16.38;;
59788;SDS011;47353;51.614;5.530;2024-02-28T00:45:48;27.80;;;14.80;;
59788;SDS011;47353;51.614;5.530;2024-02-28T00:48:13;27.27;;;14.55;;
59788;SDS011;47353;51.614;5.530;2024-02-28T00:50:39;28.50;;;14.82;;
59788;SDS011;47353;51.614;5.530;2024-02-28T00:53:04;29.45;;;16.35;;
59788;SDS011;47353;51.614;5.530;2024-02-28T00:55:30;26.73;;;14.73;;
59788;SDS011;47353;51.614;5.530;2024-02-28T00:57:55;26.33;;;13.73;;
59788;SDS011;47353;51.614;5.530;2024-02-28T01:00:21;25.80;;;14.57;;
59788;SDS011;47353;51.614;5.530;2024-02-28T01:02:46;26.70;;;13.93;;
59788;SDS011;47353;51.614;5.530;2024-02-28T01:05:11;28.80;;;16.00;;
59788;SDS011;47353;51.614;5.530;2024-02-28T01:07:37;28.55;;;15.68;;
59788;SDS011;47353;51.614;5.530;2024-02-28T01:10:03;28.13;;;15.50;;
59788;SDS011;47353;51.614;5.530;2024-02-28T01:12:29;31.92;;;16.70;;
59788;SDS011;47353;51.614;5.530;2024-02-28T01:14:54;29.95;;;16.73;;
59788;SDS011;47353;51.614;5.530;2024-02-28T01:17:20;31.17;;;16.63;;
59788;SDS011;47353;51.614;5.530;2024-02-28T01:19:46;37.72;;;20.17;;
59788;SDS011;47353;51.614;5.530;2024-02-28T01:22:12;43.22;;;22.83;;
59788;SDS011;47353;51.614;5.530;2024-02-28T01:24:37;38.78;;;21.95;;
59788;SDS011;47353;51.614;5.530;2024-02-28T01:27:03;43.25;;;22.88;;
59788;SDS011;47353;51.614;5.530;2024-02-28T01:29:28;39.83;;;21.20;;
59788;SDS011;47353;51.614;5.530;2024-02-28T01:31:54;40.15;;;20.98;;
59788;SDS011;47353;51.614;5.530;2024-02-28T01:34:20;34.20;;;19.00;;
59788;SDS011;47353;51.614;5.530;2024-02-28T01:36:46;33.03;;;18.30;;
59788;SDS011;47353;51.614;5.530;2024-02-28T01:39:11;36.83;;;19.17;;
59788;SDS011;47353;51.614;5.530;2024-02-28T01:41:36;36.08;;;20.02;;
59788;SDS011;47353;51.614;5.530;2024-02-28T01:44:02;36.20;;;21.02;;
59788;SDS011;47353;51.614;5.530;2024-02-28T01:46:27;32.55;;;19.13;;
59788;SDS011;47353;51.614;5.530;2024-02-28T01:48:54;30.52;;;17.98;;
59788;SDS011;47353;51.614;5.530;2024-02-28T01:51:21;28.30;;;16.77;;
59788;SDS011;47353;51.614;5.530;2024-02-28T01:53:47;28.45;;;16.33;;
59788;SDS011;47353;51.614;5.530;2024-02-28T01:56:15;28.15;;;16.20;;
59788;SDS011;47353;51.614;5.530;2024-02-28T01:58:42;25.65;;;14.95;;
59788;SDS011;47353;51.614;5.530;2024-02-28T02:01:10;31.98;;;17.73;;
59788;SDS011;47353;51.614;5.530;2024-02-28T02:03:36;30.48;;;16.55;;
59788;SDS011;47353;51.614;5.530;2024-02-28T02:06:02;30.40;;;17.00;;
59788;SDS011;47353;51.614;5.530;2024-02-28T02:08:28;28.75;;;16.15;;
59788;SDS011;47353;51.614;5.530;2024-02-28T02:10:54;25.40;;;14.73;;
59788;SDS011;47353;51.614;5.530;2024-02-28T02:13:19;27.92;;;15.80;;
59788;SDS011;47353;51.614;5.530;2024-02-28T02:15:45;26.60;;;14.95;;
59788;SDS011;47353;51.614;5.530;2024-02-28T02:18:10;26.60;;;14.77;;
59788;SDS011;47353;51.614;5.530;2024-02-28T02:20:36;28.05;;;16.73;;
59788;SDS011;47353;51.614;5.530;2024-02-28T02:23:07;30.08;;;16.65;;
59788;SDS011;47353;51.614;5.530;2024-02-28T02:25:33;28.17;;;16.92;;
59788;SDS011;47353;51.614;5.530;2024-02-28T02:27:58;26.38;;;15.88;;
59788;SDS011;47353;51.614;5.530;2024-02-28T02:30:24;27.67;;;16.20;;
59788;SDS011;47353;51.614;5.530;2024-02-28T02:32:49;29.50;;;15.98;;
59788;SDS011;47353;51.614;5.530;2024-02-28T02:35:15;33.42;;;17.80;;
59788;SDS011;47353;51.614;5.530;2024-02-28T02:37:44;28.52;;;16.13;;
59788;SDS011;47353;51.614;5.530;2024-02-28T02:40:13;23.88;;;14.05;;
59788;SDS011;47353;51.614;5.530;2024-02-28T02:42:39;23.05;;;13.98;;
59788;SDS011;47353;51.614;5.530;2024-02-28T02:45:04;21.88;;;12.55;;
59788;SDS011;47353;51.614;5.530;2024-02-28T02:47:30;28.25;;;15.55;;
59788;SDS011;47353;51.614;5.530;2024-02-28T02:49:56;31.92;;;17.83;;
59788;SDS011;47353;51.614;5.530;2024-02-28T02:52:21;34.58;;;18.58;;
59788;SDS011;47353;51.614;5.530;2024-02-28T02:54:46;28.83;;;17.05;;
59788;SDS011;47353;51.614;5.530;2024-02-28T02:57:12;28.25;;;16.00;;
59788;SDS011;47353;51.614;5.530;2024-02-28T02:59:37;27.33;;;15.63;;
59788;SDS011;47353;51.614;5.530;2024-02-28T03:02:03;27.13;;;15.98;;
59788;SDS011;47353;51.614;5.530;2024-02-28T03:04:28;28.15;;;15.98;;
59788;SDS011;47353;51.614;5.530;2024-02-28T03:06:54;26.63;;;15.15;;
59788;SDS011;47353;51.614;5.530;2024-02-28T03:09:19;22.95;;;14.15;;
59788;SDS011;47353;51.614;5.530;2024-02-28T03:11:45;21.33;;;13.38;;
59788;SDS011;47353;51.614;5.530;2024-02-28T03:14:10;22.40;;;13.00;;
59788;SDS011;47353;51.614;5.530;2024-02-28T03:16:40;22.67;;;13.40;;
59788;SDS011;47353;51.614;5.530;2024-02-28T03:19:06;21.55;;;12.70;;
59788;SDS011;47353;51.614;5.530;2024-02-28T03:21:31;21.85;;;12.85;;
59788;SDS011;47353;51.614;5.530;2024-02-28T03:23:57;26.10;;;15.25;;
59788;SDS011;47353;51.614;5.530;2024-02-28T03:26:22;29.83;;;17.63;;
59788;SDS011;47353;51.614;5.530;2024-02-28T03:28:48;26.52;;;16.02;;
59788;SDS011;47353;51.614;5.530;2024-02-28T03:31:13;31.63;;;19.00;;
59788;SDS011;47353;51.614;5.530;2024-02-28T03:33:39;28.63;;;16.50;;
59788;SDS011;47353;51.614;5.530;2024-02-28T03:36:04;29.27;;;16.55;;
59788;SDS011;47353;51.614;5.530;2024-02-28T03:38:30;25.05;;;15.05;;
59788;SDS011;47353;51.614;5.530;2024-02-28T03:40:55;24.38;;;14.20;;
59788;SDS011;47353;51.614;5.530;2024-02-28T03:43:21;22.63;;;13.88;;
59788;SDS011;47353;51.614;5.530;2024-02-28T03:45:46;23.50;;;14.10;;
59788;SDS011;47353;51.614;5.530;2024-02-28T03:48:11;26.80;;;15.95;;
59788;SDS011;47353;51.614;5.530;2024-02-28T03:50:37;29.90;;;17.50;;
59788;SDS011;47353;51.614;5.530;2024-02-28T03:53:03;32.50;;;18.58;;
59788;SDS011;47353;51.614;5.530;2024-02-28T03:55:29;30.10;;;17.90;;
59788;SDS011;47353;51.614;5.530;2024-02-28T03:57:54;34.40;;;20.58;;
59788;SDS011;47353;51.614;5.530;2024-02-28T04:00:20;34.97;;;19.88;;
59788;SDS011;47353;51.614;5.530;2024-02-28T04:02:45;31.80;;;19.70;;
59788;SDS011;47353;51.614;5.530;2024-02-28T04:05:10;34.67;;;21.20;;
59788;SDS011;47353;51.614;5.530;2024-02-28T04:07:37;32.83;;;20.45;;
59788;SDS011;47353;51.614;5.530;2024-02-28T04:10:02;35.28;;;20.30;;
59788;SDS011;47353;51.614;5.530;2024-02-28T04:12:30;34.22;;;20.20;;
59788;SDS011;47353;51.614;5.530;2024-02-28T04:14:56;35.67;;;20.73;;
59788;SDS011;47353;51.614;5.530;2024-02-28T04:17:21;34.67;;;21.02;;
59788;SDS011;47353;51.614;5.530;2024-02-28T04:19:46;31.88;;;20.42;;
59788;SDS011;47353;51.614;5.530;2024-02-28T04:22:12;32.53;;;20.63;;
59788;SDS011;47353;51.614;5.530;2024-02-28T04:24:37;36.35;;;22.88;;
59788;SDS011;47353;51.614;5.530;2024-02-28T04:27:03;35.50;;;20.90;;
59788;SDS011;47353;51.614;5.530;2024-02-28T04:29:30;35.17;;;21.17;;
59788;SDS011;47353;51.614;5.530;2024-02-28T04:31:55;37.42;;;21.98;;
59788;SDS011;47353;51.614;5.530;2024-02-28T04:34:21;36.25;;;22.40;;
59788;SDS011;47353;51.614;5.530;2024-02-28T04:36:46;37.25;;;22.73;;
59788;SDS011;47353;51.614;5.530;2024-02-28T04:39:12;35.78;;;22.73;;
59788;SDS011;47353;51.614;5.530;2024-02-28T04:41:37;37.97;;;23.20;;
59788;SDS011;47353;51.614;5.530;2024-02-28T04:44:03;35.65;;;21.35;;
59788;SDS011;47353;51.614;5.530;2024-02-28T04:46:28;34.67;;;21.10;;
59788;SDS011;47353;51.614;5.530;2024-02-28T04:48:54;34.22;;;22.30;;
59788;SDS011;47353;51.614;5.530;2024-02-28T04:51:19;36.65;;;22.10;;
59788;SDS011;47353;51.614;5.530;2024-02-28T04:53:45;35.92;;;22.02;;
59788;SDS011;47353;51.614;5.530;2024-02-28T04:56:10;37.30;;;22.20;;
59788;SDS011;47353;51.614;5.530;2024-02-28T04:58:36;38.03;;;22.20;;
59788;SDS011;47353;51.614;5.530;2024-02-28T05:01:02;39.35;;;23.25;;
59788;SDS011;47353;51.614;5.530;2024-02-28T05:03:28;37.03;;;23.65;;
59788;SDS011;47353;51.614;5.530;2024-02-28T05:05:54;35.58;;;22.15;;
59788;SDS011;47353;51.614;5.530;2024-02-28T05:08:19;40.70;;;24.45;;
59788;SDS011;47353;51.614;5.530;2024-02-28T05:10:46;39.45;;;23.83;;
59788;SDS011;47353;51.614;5.530;2024-02-28T05:13:11;39.28;;;23.35;;
59788;SDS011;47353;51.614;5.530;2024-02-28T05:15:37;37.95;;;21.67;;
59788;SDS011;47353;51.614;5.530;2024-02-28T05:18:02;35.65;;;21.13;;
59788;SDS011;47353;51.614;5.530;2024-02-28T05:20:27;41.25;;;23.50;;
59788;SDS011;47353;51.614;5.530;2024-02-28T05:22:53;42.67;;;23.10;;
59788;SDS011;47353;51.614;5.530;2024-02-28T05:25:18;42.50;;;23.48;;
59788;SDS011;47353;51.614;5.530;2024-02-28T05:27:44;45.67;;;25.33;;
59788;SDS011;47353;51.614;5.530;2024-02-28T05:30:09;44.45;;;24.63;;
59788;SDS011;47353;51.614;5.530;2024-02-28T05:32:35;42.50;;;23.60;;
59788;SDS011;47353;51.614;5.530;2024-02-28T05:35:01;42.28;;;24.45;;
59788;SDS011;47353;51.614;5.530;2024-02-28T05:37:26;45.20;;;24.63;;
59788;SDS011;47353;51.614;5.530;2024-02-28T05:39:52;44.33;;;24.15;;
59788;SDS011;47353;51.614;5.530;2024-02-28T05:42:17;39.30;;;22.70;;
59788;SDS011;47353;51.614;5.530;2024-02-28T05:44:50;46.97;;;26.15;;
59788;SDS011;47353;51.614;5.530;2024-02-28T05:47:15;51.38;;;25.50;;
59788;SDS011;47353;51.614;5.530;2024-02-28T05:49:41;50.67;;;26.80;;
59788;SDS011;47353;51.614;5.530;2024-02-28T05:52:07;44.45;;;25.27;;
59788;SDS011;47353;51.614;5.530;2024-02-28T05:54:32;45.10;;;25.33;;
59788;SDS011;47353;51.614;5.530;2024-02-28T05:56:59;47.63;;;25.30;;
59788;SDS011;47353;51.614;5.530;2024-02-28T05:59:25;53.45;;;27.83;;
59788;SDS011;47353;51.614;5.530;2024-02-28T06:01:51;50.55;;;26.95;;
59788;SDS011;47353;51.614;5.530;2024-02-28T06:04:16;51.08;;;27.98;;
59788;SDS011;47353;51.614;5.530;2024-02-28T06:06:42;53.53;;;28.42;;
59788;SDS011;47353;51.614;5.530;2024-02-28T06:09:07;50.03;;;27.23;;
59788;SDS011;47353;51.614;5.530;2024-02-28T06:11:33;54.58;;;28.30;;
59788;SDS011;47353;51.614;5.530;2024-02-28T06:13:58;50.10;;;28.20;;
59788;SDS011;47353;51.614;5.530;2024-02-28T06:16:24;58.42;;;29.65;;
59788;SDS011;47353;51.614;5.530;2024-02-28T06:18:49;52.53;;;28.55;;
59788;SDS011;47353;51.614;5.530;2024-02-28T06:21:15;54.55;;;28.95;;
59788;SDS011;47353;51.614;5.530;2024-02-28T06:23:40;53.78;;;28.17;;
59788;SDS011;47353;51.614;5.530;2024-02-28T06:26:06;53.55;;;27.65;;
59788;SDS011;47353;51.614;5.530;2024-02-28T06:28:31;52.47;;;28.02;;
59788;SDS011;47353;51.614;5.530;2024-02-28T06:31:00;51.75;;;27.65;;
59788;SDS011;47353;51.614;5.530;2024-02-28T06:33:25;53.50;;;27.92;;
59788;SDS011;47353;51.614;5.530;2024-02-28T06:35:50;57.08;;;29.10;;
59788;SDS011;47353;51.614;5.530;2024-02-28T06:38:16;53.60;;;27.88;;
59788;SDS011;47353;51.614;5.530;2024-02-28T06:40:41;54.17;;;28.23;;
59788;SDS011;47353;51.614;5.530;2024-02-28T06:43:07;63.97;;;30.45;;
59788;SDS011;47353;51.614;5.530;2024-02-28T06:45:32;58.58;;;28.70;;
59788;SDS011;47353;51.614;5.530;2024-02-28T06:47:58;61.42;;;29.02;;
59788;SDS011;47353;51.614;5.530;2024-02-28T06:50:23;67.90;;;32.05;;
59788;SDS011;47353;51.614;5.530;2024-02-28T06:52:49;65.32;;;30.55;;
59788;SDS011;47353;51.614;5.530;2024-02-28T06:55:14;60.70;;;28.80;;
59788;SDS011;47353;51.614;5.530;2024-02-28T06:57:40;58.35;;;28.40;;
59788;SDS011;47353;51.614;5.530;2024-02-28T07:00:07;62.60;;;29.77;;
59788;SDS011;47353;51.614;5.530;2024-02-28T07:02:35;54.05;;;27.63;;
59788;SDS011;47353;51.614;5.530;2024-02-28T07:05:01;65.30;;;31.20;;
59788;SDS011;47353;51.614;5.530;2024-02-28T07:07:28;59.60;;;31.15;;
59788;SDS011;47353;51.614;5.530;2024-02-28T07:09:53;58.78;;;30.45;;
59788;SDS011;47353;51.614;5.530;2024-02-28T07:12:19;61.50;;;31.25;;
59788;SDS011;47353;51.614;5.530;2024-02-28T07:14:44;60.78;;;31.17;;
59788;SDS011;47353;51.614;5.530;2024-02-28T07:17:10;50.30;;;28.83;;
59788;SDS011;47353;51.614;5.530;2024-02-28T07:19:35;55.25;;;29.02;;
59788;SDS011;47353;51.614;5.530;2024-02-28T07:22:01;59.55;;;30.60;;
59788;SDS011;47353;51.614;5.530;2024-02-28T07:24:27;56.72;;;29.17;;
59788;SDS011;47353;51.614;5.530;2024-02-28T07:26:53;57.50;;;29.45;;
59788;SDS011;47353;51.614;5.530;2024-02-28T07:29:18;62.17;;;31.08;;
59788;SDS011;47353;51.614;5.530;2024-02-28T07:31:44;58.50;;;29.75;;
59788;SDS011;47353;51.614;5.530;2024-02-28T07:34:10;55.70;;;30.60;;
59788;SDS011;47353;51.614;5.530;2024-02-28T07:36:36;57.85;;;30.75;;
59788;SDS011;47353;51.614;5.530;2024-02-28T07:39:02;55.28;;;31.25;;
59788;SDS011;47353;51.614;5.530;2024-02-28T07:41:28;57.30;;;31.38;;
59788;SDS011;47353;51.614;5.530;2024-02-28T07:43:53;55.70;;;30.75;;
59788;SDS011;47353;51.614;5.530;2024-02-28T07:46:19;53.88;;;29.25;;
59788;SDS011;47353;51.614;5.530;2024-02-28T07:48:44;55.35;;;30.77;;
59788;SDS011;47353;51.614;5.530;2024-02-28T07:51:10;53.15;;;31.17;;
59788;SDS011;47353;51.614;5.530;2024-02-28T07:53:36;54.90;;;30.17;;
59788;SDS011;47353;51.614;5.530;2024-02-28T07:56:02;50.22;;;29.17;;
59788;SDS011;47353;51.614;5.530;2024-02-28T07:58:27;51.50;;;28.98;;
59788;SDS011;47353;51.614;5.530;2024-02-28T08:00:53;51.08;;;29.20;;
59788;SDS011;47353;51.614;5.530;2024-02-28T08:03:18;53.30;;;30.38;;
59788;SDS011;47353;51.614;5.530;2024-02-28T08:05:44;54.17;;;29.50;;
59788;SDS011;47353;51.614;5.530;2024-02-28T08:08:09;51.75;;;29.48;;
59788;SDS011;47353;51.614;5.530;2024-02-28T08:10:36;52.28;;;30.20;;
59788;SDS011;47353;51.614;5.530;2024-02-28T08:13:02;52.15;;;29.08;;
59788;SDS011;47353;51.614;5.530;2024-02-28T08:15:28;51.30;;;28.92;;
59788;SDS011;47353;51.614;5.530;2024-02-28T08:17:54;46.50;;;28.27;;
59788;SDS011;47353;51.614;5.530;2024-02-28T08:20:20;53.83;;;28.70;;
59788;SDS011;47353;51.614;5.530;2024-02-28T08:22:45;47.80;;;26.60;;
59788;SDS011;47353;51.614;5.530;2024-02-28T08:25:11;48.72;;;27.20;;
59788;SDS011;47353;51.614;5.530;2024-02-28T08:27:37;45.67;;;26.77;;
59788;SDS011;47353;51.614;5.530;2024-02-28T08:30:04;45.70;;;26.33;;
59788;SDS011;47353;51.614;5.530;2024-02-28T08:32:31;45.15;;;26.55;;
59788;SDS011;47353;51.614;5.530;2024-02-28T08:34:56;46.83;;;26.70;;
59788;SDS011;47353;51.614;5.530;2024-02-28T08:37:23;43.85;;;25.13;;
59788;SDS011;47353;51.614;5.530;2024-02-28T08:39:48;42.20;;;26.23;;
59788;SDS011;47353;51.614;5.530;2024-02-28T08:42:14;41.08;;;25.20;;
59788;SDS011;47353;51.614;5.530;2024-02-28T08:44:39;42.63;;;25.45;;
59788;SDS011;47353;51.614;5.530;2024-02-28T08:47:05;43.22;;;25.67;;
59788;SDS011;47353;51.614;5.530;2024-02-28T08:49:32;39.45;;;24.02;;
59788;SDS011;47353;51.614;5.530;2024-02-28T08:51:58;42.97;;;25.55;;
59788;SDS011;47353;51.614;5.530;2024-02-28T08:54:23;41.60;;;24.65;;
59788;SDS011;47353;51.614;5.530;2024-02-28T08:56:50;38.60;;;24.23;;
59788;SDS011;47353;51.614;5.530;2024-02-28T08:59:16;42.38;;;24.83;;
59788;SDS011;47353;51.614;5.530;2024-02-28T09:01:41;41.33;;;24.48;;
59788;SDS011;47353;51.614;5.530;2024-02-28T09:04:07;42.03;;;24.88;;
59788;SDS011;47353;51.614;5.530;2024-02-28T09:06:32;39.42;;;23.77;;
59788;SDS011;47353;51.614;5.530;2024-02-28T09:08:58;39.15;;;23.80;;
59788;SDS011;47353;51.614;5.530;2024-02-28T09:11:23;36.80;;;22.65;;
59788;SDS011;47353;51.614;5.530;2024-02-28T09:13:50;42.40;;;26.05;;
59788;SDS011;47353;51.614;5.530;2024-02-28T09:16:15;41.28;;;24.83;;
59788;SDS011;47353;51.614;5.530;2024-02-28T09:18:41;39.60;;;23.00;;
59788;SDS011;47353;51.614;5.530;2024-02-28T09:21:07;37.42;;;23.25;;
59788;SDS011;47353;51.614;5.530;2024-02-28T09:23:33;35.88;;;23.05;;
59788;SDS011;47353;51.614;5.530;2024-02-28T09:26:02;36.45;;;22.17;;
59788;SDS011;47353;51.614;5.530;2024-02-28T09:28:29;37.83;;;22.67;;
59788;SDS011;47353;51.614;5.530;2024-02-28T09:30:54;37.15;;;21.25;;
59788;SDS011;47353;51.614;5.530;2024-02-28T09:33:19;33.25;;;21.60;;
59788;SDS011;47353;51.614;5.530;2024-02-28T09:35:45;35.40;;;21.73;;
59788;SDS011;47353;51.614;5.530;2024-02-28T09:38:10;34.33;;;21.10;;
59788;SDS011;47353;51.614;5.530;2024-02-28T09:40:36;33.03;;;21.08;;
59788;SDS011;47353;51.614;5.530;2024-02-28T09:43:02;36.63;;;21.02;;
59788;SDS011;47353;51.614;5.530;2024-02-28T09:45:29;33.67;;;20.48;;
59788;SDS011;47353;51.614;5.530;2024-02-28T09:47:58;33.75;;;20.23;;
59788;SDS011;47353;51.614;5.530;2024-02-28T09:50:25;33.47;;;20.08;;
59788;SDS011;47353;51.614;5.530;2024-02-28T09:52:52;33.38;;;19.70;;
59788;SDS011;47353;51.614;5.530;2024-02-28T09:55:19;32.70;;;19.75;;
59788;SDS011;47353;51.614;5.530;2024-02-28T09:57:45;36.78;;;21.02;;
59788;SDS011;47353;51.614;5.530;2024-02-28T10:00:13;37.10;;;21.58;;
59788;SDS011;47353;51.614;5.530;2024-02-28T10:02:41;34.40;;;20.20;;
59788;SDS011;47353;51.614;5.530;2024-02-28T10:05:09;34.13;;;20.38;;
59788;SDS011;47353;51.614;5.530;2024-02-28T10:07:35;32.65;;;20.35;;
59788;SDS011;47353;51.614;5.530;2024-02-28T10:10:01;34.78;;;20.63;;
59788;SDS011;47353;51.614;5.530;2024-02-28T10:12:26;33.88;;;20.17;;
59788;SDS011;47353;51.614;5.530;2024-02-28T10:14:51;34.33;;;21.67;;
59788;SDS011;47353;51.614;5.530;2024-02-28T10:17:17;36.60;;;20.50;;
59788;SDS011;47353;51.614;5.530;2024-02-28T10:19:43;38.75;;;22.17;;
59788;SDS011;47353;51.614;5.530;2024-02-28T10:22:08;36.15;;;20.60;;
59788;SDS011;47353;51.614;5.530;2024-02-28T10:24:34;34.33;;;21.83;;
59788;SDS011;47353;51.614;5.530;2024-02-28T10:27:00;32.88;;;20.52;;
59788;SDS011;47353;51.614;5.530;2024-02-28T10:29:26;34.30;;;20.92;;
59788;SDS011;47353;51.614;5.530;2024-02-28T10:31:58;31.92;;;20.10;;
59788;SDS011;47353;51.614;5.530;2024-02-28T10:34:23;32.88;;;20.15;;
59788;SDS011;47353;51.614;5.530;2024-02-28T10:36:49;34.22;;;21.48;;
59788;SDS011;47353;51.614;5.530;2024-02-28T10:39:15;30.67;;;20.83;;
59788;SDS011;47353;51.614;5.530;2024-02-28T10:41:41;34.05;;;21.25;;
59788;SDS011;47353;51.614;5.530;2024-02-28T10:44:08;31.88;;;21.25;;
59788;SDS011;47353;51.614;5.530;2024-02-28T10:46:35;33.47;;;21.33;;
59788;SDS011;47353;51.614;5.530;2024-02-28T10:49:03;36.72;;;21.63;;
59788;SDS011;47353;51.614;5.530;2024-02-28T10:51:29;32.17;;;20.65;;
59788;SDS011;47353;51.614;5.530;2024-02-28T10:54:04;33.03;;;20.85;;
59788;SDS011;47353;51.614;5.530;2024-02-28T10:56:39;33.17;;;21.85;;
59788;SDS011;47353;51.614;5.530;2024-02-28T10:59:06;32.97;;;21.88;;
59788;SDS011;47353;51.614;5.530;2024-02-28T11:01:34;33.67;;;22.42;;
59788;SDS011;47353;51.614;5.530;2024-02-28T11:04:18;33.53;;;21.52;;
59788;SDS011;47353;51.614;5.530;2024-02-28T11:06:56;37.55;;;21.83;;
59788;SDS011;47353;51.614;5.530;2024-02-28T11:09:22;37.75;;;21.20;;
59788;SDS011;47353;51.614;5.530;2024-02-28T11:11:49;36.40;;;21.10;;
59788;SDS011;47353;51.614;5.530;2024-02-28T11:14:18;33.42;;;21.27;;
59788;SDS011;47353;51.614;5.530;2024-02-28T11:16:47;35.42;;;20.42;;
59788;SDS011;47353;51.614;5.530;2024-02-28T11:19:20;31.05;;;20.15;;
59788;SDS011;47353;51.614;5.530;2024-02-28T11:21:53;33.20;;;19.38;;
59788;SDS011;47353;51.614;5.530;2024-02-28T11:24:22;34.92;;;21.13;;
59788;SDS011;47353;51.614;5.530;2024-02-28T11:26:53;34.30;;;21.27;;
59788;SDS011;47353;51.614;5.530;2024-02-28T11:29:24;34.08;;;20.73;;
59788;SDS011;47353;51.614;5.530;2024-02-28T11:31:54;30.38;;;19.88;;
59788;SDS011;47353;51.614;5.530;2024-02-28T11:34:20;30.73;;;20.15;;
59788;SDS011;47353;51.614;5.530;2024-02-28T11:36:46;30.75;;;19.58;;
59788;SDS011;47353;51.614;5.530;2024-02-28T11:39:16;30.98;;;19.83;;
59788;SDS011;47353;51.614;5.530;2024-02-28T11:41:42;28.85;;;19.08;;
59788;SDS011;47353;51.614;5.530;2024-02-28T11:44:11;30.00;;;18.50;;
59788;SDS011;47353;51.614;5.530;2024-02-28T11:46:38;27.33;;;17.98;;
59788;SDS011;47353;51.614;5.530;2024-02-28T11:49:17;27.38;;;17.92;;
59788;SDS011;47353;51.614;5.530;2024-02-28T11:51:43;30.58;;;17.27;;
59788;SDS011;47353;51.614;5.530;2024-02-28T11:54:09;28.02;;;17.17;;
59788;SDS011;47353;51.614;5.530;2024-02-28T11:56:38;24.38;;;16.02;;
59788;SDS011;47353;51.614;5.530;2024-02-28T11:59:05;25.67;;;15.02;;
59788;SDS011;47353;51.614;5.530;2024-02-28T12:01:37;25.42;;;15.65;;
59788;SDS011;47353;51.614;5.530;2024-02-28T12:04:04;22.20;;;15.43;;
59788;SDS011;47353;51.614;5.530;2024-02-28T12:06:31;24.58;;;16.65;;
59788;SDS011;47353;51.614;5.530;2024-02-28T12:08:57;23.60;;;16.00;;
59788;SDS011;47353;51.614;5.530;2024-02-28T12:11:26;24.60;;;14.90;;
59788;SDS011;47353;51.614;5.530;2024-02-28T12:13:57;24.73;;;15.32;;
59788;SDS011;47353;51.614;5.530;2024-02-28T12:16:26;23.45;;;15.15;;
59788;SDS011;47353;51.614;5.530;2024-02-28T12:18:52;22.92;;;15.40;;
59788;SDS011;47353;51.614;5.530;2024-02-28T12:21:19;22.08;;;14.63;;
59788;SDS011;47353;51.614;5.530;2024-02-28T12:23:45;21.45;;;14.55;;
59788;SDS011;47353;51.614;5.530;2024-02-28T12:26:11;22.98;;;15.60;;
59788;SDS011;47353;51.614;5.530;2024-02-28T12:28:37;21.98;;;14.80;;
59788;SDS011;47353;51.614;5.530;2024-02-28T12:31:02;22.10;;;14.90;;
59788;SDS011;47353;51.614;5.530;2024-02-28T12:33:30;23.88;;;15.93;;
59788;SDS011;47353;51.614;5.530;2024-02-28T12:35:55;24.80;;;14.63;;
59788;SDS011;47353;51.614;5.530;2024-02-28T12:38:21;22.00;;;13.93;;
59788;SDS011;47353;51.614;5.530;2024-02-28T12:40:47;18.02;;;12.50;;
59788;SDS011;47353;51.614;5.530;2024-02-28T12:43:13;19.67;;;12.27;;
59788;SDS011;47353;51.614;5.530;2024-02-28T12:45:39;17.70;;;10.05;;
59788;SDS011;47353;51.614;5.530;2024-02-28T12:48:04;15.20;;;11.07;;
59788;SDS011;47353;51.614;5.530;2024-02-28T12:50:31;17.08;;;11.13;;
59788;SDS011;47353;51.614;5.530;2024-02-28T12:52:58;16.52;;;11.75;;
59788;SDS011;47353;51.614;5.530;2024-02-28T12:55:25;15.35;;;10.68;;
59788;SDS011;47353;51.614;5.530;2024-02-28T12:57:50;17.25;;;11.10;;
59788;SDS011;47353;51.614;5.530;2024-02-28T13:00:16;17.65;;;11.93;;
59788;SDS011;47353;51.614;5.530;2024-02-28T13:02:42;17.23;;;11.85;;
59788;SDS011;47353;51.614;5.530;2024-02-28T13:05:09;17.38;;;11.45;;
59788;SDS011;47353;51.614;5.530;2024-02-28T13:07:35;20.85;;;12.65;;
59788;SDS011;47353;51.614;5.530;2024-02-28T13:10:01;18.58;;;12.32;;
59788;SDS011;47353;51.614;5.530;2024-02-28T13:12:30;19.10;;;12.10;;
59788;SDS011;47353;51.614;5.530;2024-02-28T13:14:55;20.65;;;12.25;;
59788;SDS011;47353;51.614;5.530;2024-02-28T13:17:21;19.38;;;11.07;;
59788;SDS011;47353;51.614;5.530;2024-02-28T13:19:47;18.45;;;12.10;;
59788;SDS011;47353;51.614;5.530;2024-02-28T13:22:12;20.67;;;11.65;;
59788;SDS011;47353;51.614;5.530;2024-02-28T13:24:37;19.08;;;12.45;;
59788;SDS011;47353;51.614;5.530;2024-02-28T13:27:03;19.08;;;12.63;;
59788;SDS011;47353;51.614;5.530;2024-02-28T13:29:29;21.92;;;13.57;;
59788;SDS011;47353;51.614;5.530;2024-02-28T13:31:56;19.83;;;12.52;;
59788;SDS011;47353;51.614;5.530;2024-02-28T13:34:21;19.48;;;12.93;;
59788;SDS011;47353;51.614;5.530;2024-02-28T13:36:47;20.23;;;13.60;;
59788;SDS011;47353;51.614;5.530;2024-02-28T13:39:12;21.48;;;13.43;;
59788;SDS011;47353;51.614;5.530;2024-02-28T13:41:39;18.90;;;13.52;;
59788;SDS011;47353;51.614;5.530;2024-02-28T13:44:04;23.58;;;14.13;;
59788;SDS011;47353;51.614;5.530;2024-02-28T13:46:30;20.08;;;13.73;;
59788;SDS011;47353;51.614;5.530;2024-02-28T13:48:57;21.80;;;14.10;;
59788;SDS011;47353;51.614;5.530;2024-02-28T13:51:23;21.63;;;14.48;;
59788;SDS011;47353;51.614;5.530;2024-02-28T13:53:49;23.88;;;14.48;;
59788;SDS011;47353;51.614;5.530;2024-02-28T13:56:17;26.95;;;15.32;;
59788;SDS011;47353;51.614;5.530;2024-02-28T13:58:43;23.58;;;15.15;;
59788;SDS011;47353;51.614;5.530;2024-02-28T14:01:09;21.73;;;14.90;;
59788;SDS011;47353;51.614;5.530;2024-02-28T14:03:34;23.23;;;15.00;;
59788;SDS011;47353;51.614;5.530;2024-02-28T14:06:00;23.27;;;14.73;;
59788;SDS011;47353;51.614;5.530;2024-02-28T14:08:25;25.30;;;15.70;;
59788;SDS011;47353;51.614;5.530;2024-02-28T14:10:52;24.27;;;16.02;;
59788;SDS011;47353;51.614;5.530;2024-02-28T14:13:17;24.08;;;16.48;;
59788;SDS011;47353;51.614;5.530;2024-02-28T14:15:44;25.27;;;15.98;;